Time;durP1;ratioP1;P1;durP2;ratioP2;P2;SDS_P1;SDS_P2;PMS_P1;PMS_P2;Temp;Humidity;BMP_temperature;BMP_pressure;BME280_temperature;BME280_humidity;BME280_pressure;Samples;Min_cycle;Max_cycle;Signal;HPM_P1;HPM_P2
2023/08/17 00:02:13;;;;;;;2.58;1.10;;;24.70;92.80;;;;;;5072165;28;20200;-68
2023/08/17 00:04:40;;;;;;;1.63;1.00;;;24.70;92.90;;;;;;5067745;28;20267;-68
2023/08/17 00:07:07;;;;;;;3.75;1.20;;;24.70;93.00;;;;;;5063087;28;20472;-68
2023/08/17 00:09:35;;;;;;;2.78;1.08;;;24.70;93.10;;;;;;5054489;28;20212;-69
2023/08/17 00:12:02;;;;;;;1.92;1.10;;;24.70;93.20;;;;;;5054686;28;20254;-68
2023/08/17 00:14:29;;;;;;;3.60;1.17;;;24.70;93.30;;;;;;5053974;28;20201;-67
2023/08/17 00:16:56;;;;;;;1.77;1.13;;;24.70;93.30;;;;;;5071912;28;20194;-67
2023/08/17 00:19:25;;;;;;;2.83;1.08;;;24.70;93.40;;;;;;5053509;28;20221;-68
2023/08/17 00:21:52;;;;;;;3.90;1.20;;;24.70;93.40;;;;;;5071912;28;20288;-68
2023/08/17 00:24:22;;;;;;;1.88;1.05;;;24.70;93.50;;;;;;5070429;28;20208;-68
2023/08/17 00:26:52;;;;;;;2.50;1.17;;;24.70;93.60;;;;;;5045870;28;20212;-68
2023/08/17 00:29:19;;;;;;;3.53;1.30;;;24.70;93.60;;;;;;5072206;28;20216;-67
2023/08/17 00:31:48;;;;;;;2.25;1.00;;;24.70;93.70;;;;;;5054142;28;20255;-67
2023/08/17 00:34:15;;;;;;;2.05;1.10;;;24.70;93.80;;;;;;5049430;28;20202;-67
2023/08/17 00:36:43;;;;;;;1.58;1.00;;;24.70;93.90;;;;;;5053181;28;20221;-68
2023/08/17 00:39:11;;;;;;;2.28;1.20;;;24.70;93.90;;;;;;5050204;28;20607;-68
2023/08/17 00:41:38;;;;;;;1.52;1.23;;;24.60;93.90;;;;;;5053603;28;20216;-68
2023/08/17 00:44:06;;;;;;;1.88;1.15;;;24.60;94.00;;;;;;5054257;28;20197;-68
2023/08/17 00:46:33;;;;;;;2.30;1.25;;;24.60;94.10;;;;;;5053475;28;20216;-67
2023/08/17 00:49:01;;;;;;;1.40;0.93;;;24.60;94.10;;;;;;5052691;28;20270;-67
2023/08/17 00:51:30;;;;;;;3.05;0.90;;;24.50;94.20;;;;;;5065313;28;20196;-69
2023/08/17 00:54:00;;;;;;;2.97;1.17;;;24.50;94.30;;;;;;5072204;28;20193;-69
2023/08/17 00:56:28;;;;;;;3.58;1.15;;;24.50;94.30;;;;;;5071696;28;20561;-68
2023/08/17 00:58:56;;;;;;;2.30;1.00;;;24.80;94.50;;;;;;5071843;28;20201;-69
2023/08/17 01:01:23;;;;;;;2.72;1.15;;;24.50;94.40;;;;;;5053357;28;20212;-69
2023/08/17 01:03:50;;;;;;;2.10;0.90;;;24.40;94.50;;;;;;5070326;28;20199;-69
2023/08/17 01:06:18;;;;;;;4.22;1.20;;;24.40;94.60;;;;;;5052490;28;20237;-68
2023/08/17 01:08:46;;;;;;;3.40;1.23;;;24.40;94.60;;;;;;5053030;28;20217;-68
2023/08/17 01:11:26;;;;;;;4.40;1.20;;;24.40;94.70;;;;;;5069528;28;20205;-68
2023/08/17 01:14:02;;;;;;;1.92;0.93;;;24.40;94.70;;;;;;5072059;28;20209;-67
2023/08/17 01:16:34;;;;;;;1.98;1.13;;;24.40;94.70;;;;;;5070796;28;20197;-66
2023/08/17 01:19:02;;;;;;;1.67;1.20;;;24.40;94.80;;;;;;5052672;28;20201;-68
2023/08/17 01:21:37;;;;;;;1.67;1.10;;;24.40;94.90;;;;;;5041172;28;20209;-68
2023/08/17 01:24:07;;;;;;;2.88;1.13;;;24.40;94.90;;;;;;5053191;28;20759;-68
2023/08/17 01:26:35;;;;;;;2.47;1.38;;;24.40;94.90;;;;;;5061954;28;20280;-67
2023/08/17 01:29:02;;;;;;;1.33;1.20;;;24.40;95.00;;;;;;5070999;28;20228;-68
2023/08/17 01:31:33;;;;;;;1.98;1.02;;;24.40;95.00;;;;;;5052634;28;20288;-68
2023/08/17 01:34:07;;;;;;;4.80;1.42;;;24.40;95.00;;;;;;5070289;28;20247;-68
2023/08/17 01:36:38;;;;;;;3.65;1.13;;;24.40;95.10;;;;;;5052723;28;20266;-67
2023/08/17 01:39:10;;;;;;;2.35;1.30;;;24.40;95.10;;;;;;5070025;28;20258;-68
2023/08/17 01:41:39;;;;;;;3.17;1.17;;;24.40;95.20;;;;;;5070707;28;20193;-68
2023/08/17 01:44:07;;;;;;;1.67;1.10;;;24.40;95.20;;;;;;5055071;28;20808;-68
2023/08/17 01:46:35;;;;;;;1.58;0.90;;;24.40;95.20;;;;;;5071253;28;20205;-67
2023/08/17 01:49:02;;;;;;;2.70;1.17;;;24.40;95.30;;;;;;5073849;28;20299;-68
2023/08/17 01:51:31;;;;;;;2.03;0.90;;;24.30;95.30;;;;;;5048002;28;20265;-68
2023/08/17 01:53:58;;;;;;;2.40;1.15;;;24.30;95.40;;;;;;5072657;28;20600;-68
2023/08/17 01:56:26;;;;;;;2.35;1.10;;;24.30;95.40;;;;;;5052833;28;20197;-68
2023/08/17 01:58:53;;;;;;;1.80;1.10;;;24.30;95.50;;;;;;5053088;28;20193;-68
2023/08/17 02:01:23;;;;;;;2.75;1.20;;;24.30;95.60;;;;;;5052512;28;20219;-68
2023/08/17 02:03:50;;;;;;;3.63;1.17;;;24.30;95.60;;;;;;5070096;28;20189;-68
2023/08/17 02:06:17;;;;;;;1.98;1.00;;;24.30;95.60;;;;;;5033040;28;20279;-68
2023/08/17 02:08:46;;;;;;;2.83;0.98;;;24.30;95.70;;;;;;5039953;28;20210;-68
2023/08/17 02:11:13;;;;;;;2.28;0.90;;;24.20;95.70;;;;;;5037851;28;20210;-68
2023/08/17 02:13:41;;;;;;;2.97;1.17;;;24.20;95.80;;;;;;5029026;28;20195;-68
2023/08/17 02:16:09;;;;;;;3.80;1.20;;;24.20;95.80;;;;;;5036397;28;20291;-68
2023/08/17 02:18:36;;;;;;;3.20;1.20;;;24.20;95.90;;;;;;5036334;28;20558;-68
2023/08/17 02:21:03;;;;;;;1.27;0.90;;;24.20;95.90;;;;;;5048209;28;20608;-68
2023/08/17 02:23:30;;;;;;;2.22;1.10;;;24.20;96.00;;;;;;5029322;28;20202;-67
2023/08/17 02:25:57;;;;;;;1.83;0.98;;;24.20;96.10;;;;;;5037620;28;20194;-67
2023/08/17 02:28:24;;;;;;;3.05;1.00;;;24.10;96.10;;;;;;5037748;28;20685;-68
2023/08/17 02:30:56;;;;;;;1.63;1.20;;;24.10;96.10;;;;;;5045192;28;20665;-67
2023/08/17 02:33:28;;;;;;;3.33;1.15;;;24.10;96.20;;;;;;5035120;28;20198;-67
2023/08/17 02:35:55;;;;;;;2.80;1.42;;;24.10;96.20;;;;;;5044786;28;20295;-67
2023/08/17 02:38:23;;;;;;;2.90;1.33;;;24.10;96.30;;;;;;5037098;28;20543;-68
2023/08/17 02:40:50;;;;;;;3.88;1.30;;;24.10;96.30;;;;;;5041552;28;20214;-67
2023/08/17 02:43:17;;;;;;;2.53;0.93;;;24.10;96.30;;;;;;5036954;28;20264;-67
2023/08/17 02:45:45;;;;;;;3.38;1.23;;;24.20;96.40;;;;;;5040251;28;20286;-68
2023/08/17 02:48:13;;;;;;;0.80;0.80;;;24.10;96.40;;;;;;5036272;28;20677;-67
2023/08/17 02:50:41;;;;;;;1.85;0.98;;;24.10;96.50;;;;;;5036073;28;20203;-68
2023/08/17 02:53:08;;;;;;;2.28;1.20;;;24.20;96.60;;;;;;5042487;28;20206;-67
2023/08/17 02:55:38;;;;;;;2.28;1.30;;;24.20;96.60;;;;;;5036097;28;20649;-67
2023/08/17 02:58:05;;;;;;;3.53;1.10;;;24.10;96.50;;;;;;5037209;28;20201;-68
2023/08/17 03:00:32;;;;;;;2.80;1.25;;;24.10;96.60;;;;;;5040501;28;20216;-68
2023/08/17 03:02:59;;;;;;;1.40;0.98;;;24.10;96.60;;;;;;5035750;28;20542;-68
2023/08/17 03:05:28;;;;;;;2.55;1.20;;;24.10;96.70;;;;;;5058339;28;20228;-69
2023/08/17 03:07:55;;;;;;;6.85;1.38;;;24.10;96.80;;;;;;5076835;28;20204;-69
2023/08/17 03:10:24;;;;;;;4.60;1.08;;;24.10;96.80;;;;;;5076640;28;20202;-67
2023/08/17 03:12:51;;;;;;;3.15;1.27;;;24.10;96.80;;;;;;5076884;28;20197;-69
2023/08/17 03:15:19;;;;;;;2.33;1.02;;;24.10;96.80;;;;;;5076747;28;20196;-67
2023/08/17 03:17:46;;;;;;;5.18;1.30;;;24.10;96.80;;;;;;5076920;28;20623;-68
2023/08/17 03:20:13;;;;;;;2.20;1.00;;;24.10;96.80;;;;;;5076315;28;20205;-68
2023/08/17 03:22:42;;;;;;;2.13;1.35;;;24.10;96.90;;;;;;5053910;28;20262;-69
2023/08/17 03:25:10;;;;;;;4.07;1.20;;;24.10;96.90;;;;;;5055032;28;20212;-68
2023/08/17 03:27:38;;;;;;;2.25;0.90;;;24.10;96.90;;;;;;5055265;28;20672;-69
2023/08/17 03:30:06;;;;;;;3.55;1.00;;;24.00;96.80;;;;;;5055438;28;20224;-69
2023/08/17 03:32:33;;;;;;;2.60;1.05;;;24.10;96.90;;;;;;5072353;28;20295;-68
2023/08/17 03:35:00;;;;;;;1.52;0.90;;;24.00;96.80;;;;;;5072298;28;20564;-69
2023/08/17 03:37:27;;;;;;;2.28;1.10;;;24.10;96.80;;;;;;5071989;28;20249;-69
2023/08/17 03:39:56;;;;;;;1.83;1.00;;;24.10;96.80;;;;;;5055605;28;20208;-68
2023/08/17 03:42:23;;;;;;;1.48;0.85;;;24.00;96.80;;;;;;5050958;28;20212;-69
2023/08/17 03:44:52;;;;;;;4.38;1.00;;;24.10;96.90;;;;;;5073793;28;20208;-69
2023/08/17 03:47:19;;;;;;;2.67;0.95;;;24.00;96.80;;;;;;5071727;28;20205;-69
2023/08/17 03:49:46;;;;;;;1.88;0.90;;;24.10;96.90;;;;;;5066341;28;20218;-69
2023/08/17 03:52:14;;;;;;;2.90;1.00;;;24.10;96.90;;;;;;5055170;28;20267;-69
2023/08/17 03:54:41;;;;;;;4.05;1.48;;;24.00;96.80;;;;;;5073577;28;20215;-68
2023/08/17 03:57:10;;;;;;;3.38;1.40;;;24.10;96.90;;;;;;5070278;28;20197;-68
2023/08/17 03:59:37;;;;;;;3.40;1.15;;;24.10;96.90;;;;;;5072623;28;20283;-68
2023/08/17 04:02:04;;;;;;;2.88;1.15;;;24.00;96.80;;;;;;5072249;28;20225;-67
2023/08/17 04:04:31;;;;;;;2.22;0.90;;;23.90;96.80;;;;;;5071217;28;20587;-67
2023/08/17 04:06:58;;;;;;;1.67;1.33;;;24.10;96.90;;;;;;5054070;28;20212;-68
2023/08/17 04:09:26;;;;;;;2.35;0.73;;;24.10;96.90;;;;;;5054575;28;20220;-68
2023/08/17 04:11:54;;;;;;;2.40;1.20;;;24.10;96.90;;;;;;5072492;28;20282;-68
2023/08/17 04:14:23;;;;;;;3.10;0.93;;;24.00;96.90;;;;;;5068869;28;20284;-68
2023/08/17 04:16:50;;;;;;;1.65;1.10;;;24.00;96.90;;;;;;5053605;28;20185;-67
2023/08/17 04:19:17;;;;;;;2.88;1.02;;;24.00;96.90;;;;;;5054375;28;20200;-67
2023/08/17 04:21:44;;;;;;;1.88;0.90;;;24.00;96.90;;;;;;5053566;28;20201;-68
2023/08/17 04:24:12;;;;;;;1.67;1.00;;;24.00;96.90;;;;;;5053912;28;20292;-68
2023/08/17 04:26:39;;;;;;;2.75;1.00;;;24.00;96.90;;;;;;5045695;28;20197;-68
2023/08/17 04:29:07;;;;;;;2.15;1.30;;;24.00;96.90;;;;;;5053767;28;20282;-68
2023/08/17 04:31:37;;;;;;;3.38;1.25;;;24.00;97.00;;;;;;5053566;28;20291;-68
2023/08/17 04:34:04;;;;;;;3.00;0.93;;;24.00;97.00;;;;;;5052648;28;20247;-68
2023/08/17 04:36:32;;;;;;;5.13;1.10;;;24.00;97.00;;;;;;5053022;28;20227;-67
2023/08/17 04:39:00;;;;;;;2.90;1.13;;;24.00;97.00;;;;;;5072655;28;20201;-67
2023/08/17 04:41:27;;;;;;;2.97;1.23;;;24.00;97.10;;;;;;5053923;28;20276;-67
2023/08/17 04:43:55;;;;;;;3.20;1.17;;;23.90;97.10;;;;;;5057060;28;20225;-68
2023/08/17 04:46:23;;;;;;;3.70;1.25;;;23.90;97.20;;;;;;5053422;28;20697;-67
2023/08/17 04:48:52;;;;;;;3.80;1.35;;;23.90;97.30;;;;;;5052650;28;20212;-68
2023/08/17 04:51:19;;;;;;;3.70;1.23;;;23.90;97.30;;;;;;5052435;28;20224;-68
2023/08/17 04:53:49;;;;;;;4.10;1.50;;;23.90;97.40;;;;;;5054090;28;20201;-68
2023/08/17 04:56:17;;;;;;;6.13;1.50;;;23.80;97.50;;;;;;5053089;28;20209;-67
2023/08/17 04:58:44;;;;;;;2.03;1.10;;;23.70;97.70;;;;;;5054168;28;20209;-67
2023/08/17 05:01:12;;;;;;;3.15;1.20;;;23.60;97.90;;;;;;5052802;28;20196;-67
2023/08/17 05:03:40;;;;;;;2.85;1.20;;;23.50;98.10;;;;;;5051968;28;20209;-67
2023/08/17 05:06:09;;;;;;;4.05;1.30;;;23.40;98.20;;;;;;5047770;28;20253;-67
2023/08/17 05:08:36;;;;;;;3.13;1.05;;;23.30;98.30;;;;;;5071644;28;20185;-67
2023/08/17 05:11:03;;;;;;;3.55;1.13;;;23.30;98.40;;;;;;5053179;28;20593;-66
2023/08/17 05:13:30;;;;;;;2.90;1.15;;;23.40;98.60;;;;;;5054518;28;20194;-68
2023/08/17 05:16:01;;;;;;;5.85;1.33;;;23.40;98.60;;;;;;5053238;28;20201;-68
2023/08/17 05:18:28;;;;;;;2.97;1.17;;;23.40;98.60;;;;;;5052357;28;20211;-68
2023/08/17 05:20:55;;;;;;;3.10;1.30;;;23.50;98.60;;;;;;5071499;28;20196;-68
2023/08/17 05:23:41;;;;;;;3.53;1.35;;;23.50;98.60;;;;;;5053394;28;20254;-67
2023/08/17 05:26:08;;;;;;;2.08;1.30;;;23.60;98.60;;;;;;5057367;28;20211;-67
2023/08/17 05:28:36;;;;;;;1.45;1.05;;;23.60;98.60;;;;;;5052551;28;20204;-68
2023/08/17 05:31:06;;;;;;;4.75;1.73;;;23.60;98.70;;;;;;5054550;28;20221;-68
2023/08/17 05:33:36;;;;;;;4.07;1.23;;;23.10;98.70;;;;;;5051909;28;20205;-69
2023/08/17 05:36:03;;;;;;;3.33;1.45;;;23.50;99.20;;;;;;5052265;28;20205;-68
2023/08/17 05:38:32;;;;;;;3.80;1.55;;;23.40;99.40;;;;;;5071011;28;20279;-69
2023/08/17 05:41:01;;;;;;;3.45;1.50;;;23.40;99.60;;;;;;5053235;28;20644;-69
2023/08/17 05:43:31;;;;;;;3.80;1.60;;;23.40;99.90;;;;;;5071585;28;20189;-68
2023/08/17 05:46:00;;;;;;;1.98;1.35;;;23.30;99.90;;;;;;5052276;28;20212;-68
2023/08/17 05:48:27;;;;;;;3.17;1.17;;;23.30;99.90;;;;;;5051201;28;20571;-68
2023/08/17 05:50:56;;;;;;;2.92;1.35;;;23.30;99.90;;;;;;5052219;28;20357;-68
2023/08/17 05:53:23;;;;;;;2.60;1.20;;;23.20;99.90;;;;;;5052827;28;20549;-67
2023/08/17 05:55:51;;;;;;;7.20;1.55;;;22.80;99.90;;;;;;5070988;28;20270;-68
2023/08/17 05:58:18;;;;;;;1.95;1.25;;;23.20;99.90;;;;;;5070587;28;20197;-68
2023/08/17 06:00:46;;;;;;;2.45;1.40;;;23.10;99.90;;;;;;5052603;28;20221;-69
2023/08/17 06:03:13;;;;;;;7.78;1.50;;;23.00;99.90;;;;;;5069363;28;20201;-67
2023/08/17 06:05:43;;;;;;;3.10;1.70;;;23.00;99.90;;;;;;5050527;28;20300;-68
2023/08/17 06:08:10;;;;;;;3.00;1.88;;;23.00;99.90;;;;;;5045183;28;20205;-68
2023/08/17 06:10:37;;;;;;;3.88;1.73;;;23.00;99.90;;;;;;5068493;28;20688;-68
2023/08/17 06:13:06;;;;;;;1.60;1.20;;;22.90;99.90;;;;;;5067676;28;20201;-69
2023/08/17 06:15:33;;;;;;;3.22;1.48;;;22.90;99.90;;;;;;5067412;28;20197;-69
2023/08/17 06:18:00;;;;;;;2.15;1.17;;;22.80;99.90;;;;;;5063617;28;20208;-69
2023/08/17 06:20:28;;;;;;;1.30;1.08;;;22.80;99.90;;;;;;5068604;28;20648;-69
2023/08/17 06:22:55;;;;;;;3.30;1.40;;;22.80;99.90;;;;;;5049499;28;20217;-67
2023/08/17 06:25:22;;;;;;;1.10;1.00;;;22.80;99.90;;;;;;5059635;28;20692;-68
2023/08/17 06:27:50;;;;;;;1.05;0.90;;;22.80;99.90;;;;;;5068603;28;20242;-68
2023/08/17 06:30:19;;;;;;;0.80;0.80;;;22.90;99.90;;;;;;5049831;28;20229;-68
2023/08/17 06:32:46;;;;;;;1.45;1.10;;;23.00;99.90;;;;;;5067298;28;20186;-68
2023/08/17 06:35:13;;;;;;;2.30;0.85;;;23.10;99.90;;;;;;5048353;28;20197;-67
2023/08/17 06:37:41;;;;;;;1.30;0.93;;;23.20;99.90;;;;;;5068674;28;20243;-68
2023/08/17 06:40:12;;;;;;;1.67;0.90;;;23.30;99.90;;;;;;5068486;28;20285;-67
2023/08/17 06:42:39;;;;;;;2.25;0.93;;;23.30;99.90;;;;;;5068294;28;20694;-67
2023/08/17 06:45:08;;;;;;;2.13;0.73;;;23.30;99.90;;;;;;5050866;28;20201;-67
2023/08/17 06:47:36;;;;;;;0.60;0.55;;;23.30;99.90;;;;;;5049386;28;20209;-68
2023/08/17 06:50:04;;;;;;;0.60;0.60;;;23.30;99.90;;;;;;5069737;28;20213;-66
2023/08/17 06:52:31;;;;;;;2.00;0.90;;;23.30;99.90;;;;;;5065735;28;20225;-66
2023/08/17 06:54:59;;;;;;;0.85;0.70;;;23.30;99.90;;;;;;5065721;28;20201;-67
2023/08/17 06:57:26;;;;;;;1.30;1.20;;;23.30;99.90;;;;;;5067758;28;20280;-68
2023/08/17 06:59:53;;;;;;;1.40;0.93;;;23.30;99.90;;;;;;5072428;28;20268;-67
2023/08/17 07:02:21;;;;;;;2.63;1.00;;;23.30;99.90;;;;;;5053395;28;20205;-68
2023/08/17 07:04:50;;;;;;;0.93;0.90;;;23.30;99.90;;;;;;5069730;28;20232;-66
2023/08/17 07:07:20;;;;;;;0.90;0.90;;;23.30;99.90;;;;;;5071585;28;20453;-66
2023/08/17 07:09:48;;;;;;;1.58;1.10;;;23.30;99.90;;;;;;5071276;28;20840;-67
2023/08/17 07:12:15;;;;;;;0.93;0.93;;;23.30;99.90;;;;;;5071616;28;20197;-68
2023/08/17 07:14:42;;;;;;;1.00;0.90;;;23.30;99.90;;;;;;5052458;28;20204;-67
2023/08/17 07:17:10;;;;;;;1.10;1.00;;;23.30;99.90;;;;;;5070713;28;20204;-66
2023/08/17 07:19:37;;;;;;;1.90;1.13;;;23.40;99.90;;;;;;5070949;28;20190;-68
2023/08/17 07:22:06;;;;;;;1.77;1.10;;;23.40;99.90;;;;;;5071060;28;20223;-68
2023/08/17 07:24:33;;;;;;;1.30;1.20;;;23.40;99.90;;;;;;5056716;28;20197;-67
2023/08/17 07:27:00;;;;;;;1.67;1.15;;;23.40;99.90;;;;;;5066068;28;20197;-67
2023/08/17 07:29:31;;;;;;;1.17;1.13;;;23.40;99.90;;;;;;5053506;28;20193;-68
2023/08/17 07:32:01;;;;;;;1.20;1.10;;;23.40;99.90;;;;;;5070941;28;20290;-67
2023/08/17 07:34:28;;;;;;;1.15;1.08;;;23.40;99.90;;;;;;5070386;28;20502;-66
2023/08/17 07:36:59;;;;;;;1.83;0.80;;;23.40;99.90;;;;;;5069749;28;20621;-67
2023/08/17 07:39:27;;;;;;;2.28;1.20;;;23.40;99.90;;;;;;5074321;28;20193;-67
2023/08/17 07:41:55;;;;;;;1.25;1.13;;;23.40;99.90;;;;;;5071011;28;20387;-67
2023/08/17 07:44:25;;;;;;;1.10;1.00;;;23.50;99.90;;;;;;5069681;28;20216;-67
2023/08/17 07:46:52;;;;;;;1.13;1.02;;;23.50;99.90;;;;;;5069678;28;20197;-67
2023/08/17 07:49:20;;;;;;;1.25;0.80;;;23.50;99.90;;;;;;5070663;28;20201;-67
2023/08/17 07:51:47;;;;;;;1.38;0.95;;;23.50;99.90;;;;;;5069922;28;20213;-68
2023/08/17 07:54:15;;;;;;;1.13;1.02;;;23.50;99.90;;;;;;5070679;28;20196;-67
2023/08/17 07:56:44;;;;;;;1.10;0.90;;;23.50;99.90;;;;;;5067184;28;20197;-68
2023/08/17 07:59:11;;;;;;;1.98;1.30;;;23.50;99.90;;;;;;5070976;28;20511;-67
2023/08/17 08:01:39;;;;;;;1.60;1.13;;;23.60;99.90;;;;;;5048593;28;20204;-68
2023/08/17 08:04:07;;;;;;;1.48;0.95;;;23.60;99.90;;;;;;5069563;28;20421;-67
2023/08/17 08:06:34;;;;;;;1.45;1.00;;;23.60;99.90;;;;;;5058596;28;20233;-67
2023/08/17 08:09:02;;;;;;;1.00;1.00;;;23.70;99.90;;;;;;5070446;28;20716;-67
2023/08/17 08:11:30;;;;;;;1.00;1.00;;;23.70;99.90;;;;;;5070156;28;20295;-66
2023/08/17 08:13:59;;;;;;;1.20;1.10;;;23.70;99.90;;;;;;5069336;28;20201;-67
2023/08/17 08:16:26;;;;;;;0.80;0.80;;;23.70;99.90;;;;;;5051125;28;20194;-67
2023/08/17 08:18:53;;;;;;;1.00;1.00;;;23.80;99.90;;;;;;5069670;28;20189;-67
2023/08/17 08:21:21;;;;;;;0.80;0.80;;;23.80;99.90;;;;;;5051031;28;20213;-68
2023/08/17 08:23:48;;;;;;;1.75;0.90;;;23.80;99.90;;;;;;5071096;28;20205;-68
2023/08/17 08:26:15;;;;;;;1.23;1.08;;;23.80;99.90;;;;;;5051112;28;20193;-68
2023/08/17 08:28:43;;;;;;;0.82;0.82;;;23.80;99.90;;;;;;5070484;28;20601;-68
2023/08/17 08:31:11;;;;;;;0.70;0.70;;;23.80;99.90;;;;;;5069528;28;20665;-68
2023/08/17 08:33:39;;;;;;;0.77;0.77;;;23.80;99.90;;;;;;5047586;28;20252;-67
2023/08/17 08:36:07;;;;;;;0.85;0.75;;;23.90;99.90;;;;;;5050722;28;20216;-67
2023/08/17 08:38:34;;;;;;;0.90;0.90;;;23.90;99.90;;;;;;5071279;28;20211;-67
2023/08/17 08:41:02;;;;;;;0.82;0.80;;;23.90;99.90;;;;;;5069352;28;20243;-66
2023/08/17 08:43:30;;;;;;;0.80;0.80;;;23.90;99.90;;;;;;5065932;28;20194;-66
2023/08/17 08:46:00;;;;;;;1.00;0.70;;;24.00;99.90;;;;;;5069345;28;20224;-67
2023/08/17 08:48:30;;;;;;;0.70;0.70;;;24.00;99.90;;;;;;5048392;28;20281;-67
2023/08/17 08:51:00;;;;;;;0.70;0.70;;;24.10;99.90;;;;;;5062262;28;20288;-67
2023/08/17 08:53:33;;;;;;;0.85;0.85;;;24.20;99.90;;;;;;5070823;28;20194;-67
2023/08/17 08:56:02;;;;;;;0.77;0.77;;;24.20;99.90;;;;;;5050764;28;20205;-66
2023/08/17 08:58:33;;;;;;;0.95;0.80;;;24.20;99.90;;;;;;5051245;28;20208;-69
2023/08/17 09:01:05;;;;;;;0.90;0.90;;;24.30;99.90;;;;;;5070100;28;20715;-68
2023/08/17 09:03:34;;;;;;;0.70;0.70;;;24.30;99.90;;;;;;5049826;28;20565;-70
2023/08/17 09:06:01;;;;;;;0.80;0.80;;;24.20;99.90;;;;;;5062773;28;20655;-71
2023/08/17 09:08:30;;;;;;;0.82;0.73;;;24.20;99.90;;;;;;5052153;28;20205;-70
2023/08/17 09:10:58;;;;;;;1.20;1.10;;;24.20;99.90;;;;;;5051117;28;20221;-69
2023/08/17 09:13:25;;;;;;;0.90;0.90;;;24.20;99.90;;;;;;5068478;28;20672;-70
2023/08/17 09:15:52;;;;;;;0.98;0.95;;;24.20;99.90;;;;;;5050859;28;20193;-70
2023/08/17 09:18:20;;;;;;;0.93;0.93;;;24.10;99.90;;;;;;5068443;28;20205;-71
2023/08/17 09:20:52;;;;;;;0.70;0.70;;;24.10;99.90;;;;;;5066918;28;20193;-68
2023/08/17 09:23:22;;;;;;;2.33;1.00;;;24.00;99.90;;;;;;5052507;28;20221;-71
2023/08/17 09:25:51;;;;;;;0.90;0.90;;;24.00;99.90;;;;;;5061778;28;20258;-69
2023/08/17 09:28:20;;;;;;;1.48;0.80;;;24.00;99.90;;;;;;5069567;28;20544;-69
2023/08/17 09:30:52;;;;;;;0.93;0.88;;;24.00;99.90;;;;;;5069709;28;20607;-70
2023/08/17 09:33:20;;;;;;;0.85;0.82;;;23.90;99.90;;;;;;5047737;28;20315;-71
2023/08/17 09:35:48;;;;;;;4.22;0.90;;;23.90;99.90;;;;;;5046153;28;20196;-70
2023/08/17 09:38:15;;;;;;;1.20;0.90;;;23.90;99.90;;;;;;5050836;28;20267;-70
2023/08/17 09:40:43;;;;;;;1.13;0.88;;;23.90;99.90;;;;;;5068846;28;20268;-69
2023/08/17 09:43:14;;;;;;;1.45;0.90;;;23.90;99.90;;;;;;5069665;28;20228;-70
2023/08/17 09:45:41;;;;;;;0.60;0.60;;;23.90;99.90;;;;;;5050566;28;20252;-69
2023/08/17 09:48:09;;;;;;;0.77;0.77;;;23.90;99.90;;;;;;5068533;28;20925;-70
2023/08/17 09:50:36;;;;;;;1.42;0.85;;;23.90;99.90;;;;;;5043993;28;20558;-70
2023/08/17 09:53:05;;;;;;;1.02;0.95;;;23.90;99.90;;;;;;5068941;28;20190;-69
2023/08/17 09:55:37;;;;;;;1.98;1.10;;;23.90;99.90;;;;;;5068844;28;20671;-70
2023/08/17 09:58:04;;;;;;;1.27;0.98;;;23.90;99.90;;;;;;5051620;28;20419;-70
2023/08/17 10:00:32;;;;;;;1.75;0.90;;;24.00;99.90;;;;;;5068518;28;20301;-70
2023/08/17 10:03:03;;;;;;;1.00;1.00;;;23.90;99.90;;;;;;5049903;28;20537;-69
2023/08/17 10:05:40;;;;;;;1.55;1.08;;;23.90;99.90;;;;;;5067326;28;20253;-70
2023/08/17 10:08:11;;;;;;;2.40;0.98;;;23.90;99.90;;;;;;5068985;28;20220;-70
2023/08/17 10:10:43;;;;;;;1.67;1.00;;;24.00;99.90;;;;;;5069152;28;20207;-69
2023/08/17 10:13:13;;;;;;;1.83;0.90;;;24.00;99.90;;;;;;5050534;28;20569;-69
2023/08/17 10:15:46;;;;;;;2.30;1.10;;;24.00;99.90;;;;;;5064243;28;20217;-70
2023/08/17 10:18:21;;;;;;;1.55;0.98;;;24.00;99.90;;;;;;5064126;28;20297;-69
2023/08/17 10:20:59;;;;;;;1.85;1.27;;;24.00;99.90;;;;;;5067711;28;21036;-71
2023/08/17 10:23:28;;;;;;;1.00;1.00;;;24.00;99.90;;;;;;5069464;28;20287;-69
2023/08/17 10:25:56;;;;;;;1.35;1.23;;;24.10;99.90;;;;;;5058383;28;20192;-68
2023/08/17 10:28:24;;;;;;;3.13;1.13;;;24.10;99.90;;;;;;5068643;28;20351;-69
2023/08/17 10:30:51;;;;;;;1.20;1.10;;;24.20;99.90;;;;;;5047578;28;20209;-69
2023/08/17 10:33:19;;;;;;;1.33;1.23;;;24.20;99.90;;;;;;5071346;28;20215;-68
2023/08/17 10:35:47;;;;;;;1.52;1.10;;;24.30;99.90;;;;;;5052916;28;20204;-69
2023/08/17 10:38:16;;;;;;;1.50;1.20;;;24.50;99.90;;;;;;5072291;28;20201;-68
2023/08/17 10:40:45;;;;;;;2.95;1.58;;;24.50;99.90;;;;;;5072605;28;20205;-68
2023/08/17 10:43:12;;;;;;;1.42;1.30;;;24.70;99.90;;;;;;5069288;28;20268;-69
2023/08/17 10:45:39;;;;;;;0.95;0.95;;;24.70;99.90;;;;;;5072489;28;20228;-69
2023/08/17 10:48:26;;;;;;;1.50;1.30;;;24.80;99.90;;;;;;5072223;28;20259;-68
2023/08/17 10:51:05;;;;;;;1.85;1.33;;;24.90;99.90;;;;;;5065152;28;20725;-70
2023/08/17 10:53:43;;;;;;;5.22;1.73;;;25.00;99.90;;;;;;5072898;28;20276;-69
2023/08/17 10:56:15;;;;;;;2.15;1.50;;;25.10;99.90;;;;;;5065230;28;20274;-69
2023/08/17 10:58:44;;;;;;;1.20;1.20;;;25.20;99.90;;;;;;5055682;28;20342;-68
2023/08/17 11:01:11;;;;;;;1.00;1.00;;;25.20;99.90;;;;;;5053591;28;20193;-71
2023/08/17 11:03:40;;;;;;;1.10;1.00;;;25.30;99.90;;;;;;5067970;28;20197;-71
2023/08/17 11:06:18;;;;;;;0.95;0.95;;;25.40;99.90;;;;;;5069971;28;20263;-71
2023/08/17 11:08:56;;;;;;;1.33;1.20;;;25.40;99.90;;;;;;5072819;28;20273;-70
2023/08/17 11:11:25;;;;;;;0.80;0.80;;;25.50;99.90;;;;;;5054628;28;20245;-69
2023/08/17 18:24:03;;;;;;;2.85;1.27;;;22.50;99.90;;;;;;5106595;27;21076;-68
2023/08/17 18:26:30;;;;;;;1.20;0.93;;;22.50;99.90;;;;;;5081776;28;20222;-68
2023/08/17 18:28:58;;;;;;;0.90;0.90;;;22.60;99.90;;;;;;5091509;28;20205;-68
2023/08/17 18:31:25;;;;;;;0.90;0.90;;;22.70;99.90;;;;;;5099295;28;20626;-68
2023/08/17 18:33:52;;;;;;;1.45;0.90;;;22.80;99.90;;;;;;5084150;28;20605;-68
2023/08/17 18:36:19;;;;;;;1.20;1.10;;;22.90;99.90;;;;;;5083743;28;20709;-66
2023/08/17 18:38:47;;;;;;;0.98;0.95;;;23.10;99.90;;;;;;5096218;28;20203;-69
2023/08/17 18:41:15;;;;;;;1.38;0.73;;;23.10;99.90;;;;;;5086162;28;20279;-69
2023/08/17 18:43:42;;;;;;;1.30;1.10;;;23.20;99.90;;;;;;5089646;28;20208;-69
2023/08/17 18:46:10;;;;;;;2.20;1.00;;;23.30;99.90;;;;;;5089396;28;20566;-69
2023/08/17 18:48:37;;;;;;;1.33;1.23;;;23.30;99.90;;;;;;5084796;28;20204;-68
2023/08/17 18:51:04;;;;;;;2.40;1.23;;;23.40;99.90;;;;;;5083073;28;20204;-68
2023/08/17 18:53:32;;;;;;;0.90;0.90;;;23.50;99.90;;;;;;5091447;28;20192;-68
2023/08/17 18:56:00;;;;;;;1.08;1.08;;;23.60;99.90;;;;;;5102178;28;20279;-68
2023/08/17 18:58:31;;;;;;;0.80;0.80;;;23.80;99.90;;;;;;5086459;28;20201;-68
2023/08/17 19:00:58;;;;;;;0.70;0.70;;;23.90;99.90;;;;;;5096943;28;20667;-69
2023/08/17 19:03:26;;;;;;;1.48;1.38;;;24.00;99.90;;;;;;5090685;28;20208;-69
2023/08/17 19:05:55;;;;;;;0.95;0.90;;;24.00;99.90;;;;;;5088870;28;20192;-69
2023/08/17 19:08:26;;;;;;;0.80;0.80;;;24.10;99.90;;;;;;5105827;28;20224;-69
2023/08/17 19:10:56;;;;;;;0.88;0.88;;;24.20;99.90;;;;;;5094104;28;20207;-68
2023/08/17 19:13:33;;;;;;;1.00;1.00;;;24.20;99.90;;;;;;5088021;28;20195;-68
2023/08/17 19:16:01;;;;;;;1.33;1.23;;;24.20;99.90;;;;;;5110300;27;20196;-69
2023/08/17 19:18:31;;;;;;;1.90;1.02;;;24.30;99.90;;;;;;5084680;28;20698;-69
2023/08/17 19:20:58;;;;;;;1.25;1.15;;;24.30;99.90;;;;;;5094780;28;20939;-68
2023/08/17 19:23:26;;;;;;;1.05;1.00;;;24.30;99.90;;;;;;5095099;28;20247;-69
2023/08/17 19:25:53;;;;;;;1.13;1.10;;;24.30;99.90;;;;;;5079742;28;20219;-69
2023/08/17 19:28:20;;;;;;;1.20;1.10;;;24.30;99.90;;;;;;5098144;28;20709;-69
2023/08/17 19:30:49;;;;;;;1.20;1.20;;;24.40;99.90;;;;;;5085739;28;20227;-68
2023/08/17 19:33:17;;;;;;;1.02;1.02;;;24.40;99.90;;;;;;5096354;28;20196;-69
2023/08/17 19:35:44;;;;;;;1.20;1.10;;;24.40;99.90;;;;;;5077323;28;20193;-69
2023/08/17 19:38:11;;;;;;;0.90;0.90;;;24.40;99.90;;;;;;5084559;28;20188;-68
2023/08/17 19:40:39;;;;;;;0.82;0.82;;;24.40;99.90;;;;;;5079335;28;20545;-68
2023/08/17 19:43:06;;;;;;;1.13;1.13;;;24.50;99.90;;;;;;5079463;28;20216;-68
2023/08/17 19:45:34;;;;;;;1.20;1.10;;;24.50;99.90;;;;;;5073388;28;20738;-69
2023/08/17 19:48:02;;;;;;;1.10;1.10;;;24.50;99.90;;;;;;5080427;28;20641;-69
2023/08/17 19:50:29;;;;;;;1.20;1.10;;;24.50;99.90;;;;;;5071263;28;20255;-68
2023/08/17 19:52:57;;;;;;;0.75;0.75;;;24.50;99.90;;;;;;5082027;28;20279;-67
2023/08/17 19:55:24;;;;;;;1.02;0.90;;;24.50;99.90;;;;;;5075496;28;20537;-69
2023/08/17 19:57:54;;;;;;;0.80;0.80;;;24.50;99.90;;;;;;5073493;28;20373;-68
2023/08/17 20:00:24;;;;;;;0.90;0.90;;;24.50;99.90;;;;;;5075484;28;20513;-69
2023/08/17 20:02:54;;;;;;;1.08;1.08;;;24.50;99.90;;;;;;5078180;28;20212;-69
2023/08/17 20:05:23;;;;;;;0.77;0.77;;;24.50;99.90;;;;;;5070140;28;20193;-68